Time;durP1;ratioP1;P1;durP2;ratioP2;P2;SDS_P1;SDS_P2;PMS_P1;PMS_P2;Temp;Humidity;BMP_temperature;BMP_pressure;BME280_temperature;BME280_humidity;BME280_pressure;Samples;Min_cycle;Max_cycle;Signal;HPM_P1;HPM_P2
2021/09/23 00:01:45;;;;;;;1999.90;999.90;;;;;;;9.60;98.67;95952.31;5050268;28;20201;-71
2021/09/23 00:04:31;;;;;;;1999.90;999.90;;;;;;;9.66;99.02;95947.84;5050011;28;20282;-71
2021/09/23 00:07:00;;;;;;;1999.90;999.90;;;;;;;9.66;99.62;95953.03;5059039;28;20199;-73
2021/09/23 00:09:28;;;;;;;1999.90;999.90;;;;;;;9.71;99.17;95960.75;5048812;28;20662;-72
2021/09/23 00:11:55;;;;;;;1999.90;999.90;;;;;;;9.78;99.07;95951.59;5050573;28;20211;-72
2021/09/23 00:14:22;;;;;;;1999.90;999.90;;;;;;;9.82;98.90;95962.94;5050176;28;20205;-72
2021/09/23 00:16:50;;;;;;;1999.90;999.90;;;;;;;10.04;98.20;95959.09;5050782;28;20193;-72
2021/09/23 00:19:18;;;;;;;1999.90;999.90;;;;;;;9.77;98.01;95957.03;5056934;28;20202;-72
2021/09/23 00:21:47;;;;;;;1999.90;999.90;;;;;;;9.75;98.74;95953.97;5063062;28;20295;-71
2021/09/23 00:24:15;;;;;;;1999.90;999.90;;;;;;;9.72;99.01;95951.91;5049798;28;20205;-72
2021/09/23 00:26:43;;;;;;;1999.90;999.90;;;;;;;9.69;99.52;95942.88;5049774;28;20262;-72
2021/09/23 00:29:10;;;;;;;1999.90;999.90;;;;;;;9.70;99.56;95951.41;5049920;28;20205;-72
2021/09/23 00:31:37;;;;;;;1999.90;999.90;;;;;;;9.68;99.36;95940.53;5050036;28;20205;-72
2021/09/23 00:34:04;;;;;;;1999.90;999.90;;;;;;;9.71;99.97;95940.00;5050122;28;20209;-72
2021/09/23 00:36:32;;;;;;;1999.90;999.90;;;;;;;9.78;100.00;95946.38;5050367;28;20201;-72
2021/09/23 00:38:59;;;;;;;1999.90;999.90;;;;;;;9.84;100.00;95944.50;5049753;28;20227;-72
2021/09/23 00:41:28;;;;;;;1999.90;999.90;;;;;;;9.82;99.16;95944.78;5049893;28;20227;-72
2021/09/23 00:43:56;;;;;;;1999.90;999.90;;;;;;;9.65;99.55;95951.47;5050648;28;20287;-72
2021/09/23 00:46:23;;;;;;;1999.90;999.90;;;;;;;9.76;99.73;95939.94;5049734;28;20205;-72
2021/09/23 00:48:51;;;;;;;1999.90;999.90;;;;;;;9.73;99.54;95941.25;5049821;28;20212;-72
2021/09/23 00:51:19;;;;;;;1999.90;999.90;;;;;;;9.78;99.37;95937.81;5049494;28;20198;-72
2021/09/23 00:53:46;;;;;;;1999.90;999.90;;;;;;;9.82;99.42;95936.22;5049654;28;20587;-71
2021/09/23 00:56:15;;;;;;;1999.90;999.90;;;;;;;9.80;99.37;95933.16;5053096;28;20197;-72
2021/09/23 00:58:44;;;;;;;1999.90;999.90;;;;;;;9.79;99.87;95936.78;5049886;28;20318;-71
2021/09/23 01:01:11;;;;;;;1999.90;999.90;;;;;;;9.83;100.00;95932.59;5057726;28;20224;-71
2021/09/23 01:03:38;;;;;;;1999.90;999.90;;;;;;;9.75;99.97;95933.19;5055495;28;20200;-71
2021/09/23 01:06:05;;;;;;;1999.90;999.90;;;;;;;9.70;100.00;95931.44;5061684;28;20735;-71
2021/09/23 01:08:33;;;;;;;1999.90;999.90;;;;;;;9.63;100.00;95932.81;5049312;28;20208;-71
2021/09/23 01:11:00;;;;;;;1999.90;999.90;;;;;;;9.74;100.00;95940.22;5049718;28;20753;-71
2021/09/23 01:13:27;;;;;;;1999.90;999.90;;;;;;;9.84;100.00;95934.13;5058615;28;20203;-71
2021/09/23 01:15:56;;;;;;;1999.90;999.90;;;;;;;9.86;100.00;95934.63;5046774;28;20209;-71
2021/09/23 01:18:24;;;;;;;1999.90;999.90;;;;;;;9.75;100.00;95941.00;5031180;28;20212;-71
2021/09/23 01:20:51;;;;;;;1999.90;999.90;;;;;;;9.69;100.00;95936.91;5049170;28;20233;-70
2021/09/23 01:23:20;;;;;;;1999.90;999.90;;;;;;;9.59;100.00;95937.00;5063471;28;20200;-70
2021/09/23 01:25:47;;;;;;;1999.90;999.90;;;;;;;9.49;100.00;95932.69;5048653;28;20200;-70
2021/09/23 01:28:14;;;;;;;1999.90;999.90;;;;;;;9.54;100.00;95935.22;5062795;28;20207;-71
2021/09/23 01:30:41;;;;;;;1999.90;999.90;;;;;;;9.60;100.00;95938.56;5046136;28;20209;-71
2021/09/23 01:33:09;;;;;;;1999.90;999.90;;;;;;;9.75;100.00;95933.19;5037918;28;20197;-71
2021/09/23 01:35:37;;;;;;;1999.90;999.90;;;;;;;9.77;100.00;95944.06;5048919;28;20752;-71
2021/09/23 01:38:04;;;;;;;1999.90;999.90;;;;;;;9.83;100.00;95937.78;5049399;28;20205;-71
2021/09/23 01:40:33;;;;;;;1999.90;999.90;;;;;;;9.68;100.00;95940.53;5048615;28;20233;-72
2021/09/23 01:43:00;;;;;;;1999.90;999.90;;;;;;;9.69;100.00;95934.28;5049075;28;20205;-71
2021/09/23 01:45:27;;;;;;;1999.90;999.90;;;;;;;9.70;100.00;95933.25;5048903;28;20201;-71
2021/09/23 01:47:54;;;;;;;1999.90;999.90;;;;;;;9.83;100.00;95937.78;5050167;28;20205;-71
2021/09/23 01:50:21;;;;;;;1999.90;999.90;;;;;;;9.71;100.00;95937.41;5049068;28;20205;-71
2021/09/23 01:52:48;;;;;;;1999.90;999.90;;;;;;;9.78;100.00;95933.41;5047974;28;20233;-71
2021/09/23 01:55:16;;;;;;;1999.90;999.90;;;;;;;9.91;100.00;95939.78;5048246;28;20279;-71
2021/09/23 01:57:44;;;;;;;1999.90;999.90;;;;;;;9.75;100.00;95941.75;5048431;28;20208;-71
2021/09/23 02:00:12;;;;;;;1999.90;999.90;;;;;;;9.68;100.00;95936.13;5048803;28;20239;-71
2021/09/23 02:02:41;;;;;;;1999.90;999.90;;;;;;;9.73;100.00;95938.66;5049108;28;20208;-68
2021/09/23 02:05:10;;;;;;;1999.90;999.90;;;;;;;9.71;100.00;95932.22;5048055;28;20763;-72
2021/09/23 02:07:37;;;;;;;1999.90;999.90;;;;;;;9.69;100.00;95936.91;5048540;28;20216;-71
2021/09/23 02:10:05;;;;;;;1999.90;999.90;;;;;;;9.82;100.00;95933.63;5048830;28;20247;-71
2021/09/23 02:12:32;;;;;;;1999.90;999.90;;;;;;;9.78;100.00;95930.03;5048821;28;20209;-71
2021/09/23 02:15:02;;;;;;;1999.90;999.90;;;;;;;9.83;100.00;95929.97;5048696;28;20561;-71
2021/09/23 02:17:29;;;;;;;1999.90;999.90;;;;;;;9.79;100.00;95929.00;5048649;28;20254;-71
2021/09/23 02:19:57;;;;;;;1999.90;999.90;;;;;;;9.80;100.00;95922.75;5048263;28;20201;-71
2021/09/23 02:22:24;;;;;;;1999.90;999.90;;;;;;;9.88;100.00;95919.53;5048506;28;20205;-71
2021/09/23 02:24:54;;;;;;;1999.90;999.90;;;;;;;9.86;100.00;95921.66;5037580;28;20264;-70
2021/09/23 02:27:22;;;;;;;1999.90;999.90;;;;;;;9.89;100.00;95926.28;5047014;28;20213;-70
2021/09/23 02:29:51;;;;;;;1999.90;999.90;;;;;;;9.96;100.00;95921.53;5049952;28;20284;-71
2021/09/23 02:32:19;;;;;;;1999.90;999.90;;;;;;;9.89;100.00;95932.25;5049100;28;20204;-72
2021/09/23 02:34:47;;;;;;;1999.90;999.90;;;;;;;9.83;100.00;95922.97;5048613;28;20197;-71
2021/09/23 02:37:14;;;;;;;1999.90;999.90;;;;;;;9.82;100.00;95925.84;5039689;28;20312;-71
2021/09/23 02:39:41;;;;;;;1999.90;999.90;;;;;;;9.72;100.00;95931.13;5047760;28;20300;-71
2021/09/23 02:42:08;;;;;;;1999.90;999.90;;;;;;;9.77;100.00;95928.50;5047881;28;20221;-71
2021/09/23 02:44:35;;;;;;;1999.90;999.90;;;;;;;9.86;100.00;95925.00;5048058;28;20228;-69
2021/09/23 02:47:03;;;;;;;1999.90;999.90;;;;;;;9.83;100.00;95927.38;5047986;28;20221;-72
2021/09/23 02:49:32;;;;;;;1999.90;999.90;;;;;;;9.90;100.00;95933.03;5054440;28;20208;-72
2021/09/23 02:51:59;;;;;;;1999.90;999.90;;;;;;;9.88;100.00;95937.72;5051818;28;20290;-71
2021/09/23 02:54:26;;;;;;;1999.90;999.90;;;;;;;9.95;100.00;95938.16;5051841;28;20212;-72
2021/09/23 02:56:53;;;;;;;1999.90;999.90;;;;;;;9.98;100.00;95935.00;5051290;28;20194;-71
2021/09/23 02:59:21;;;;;;;1999.90;999.90;;;;;;;9.96;100.00;95937.13;5051450;28;20707;-71
2021/09/23 03:01:48;;;;;;;1999.90;999.90;;;;;;;10.01;100.00;95939.66;5049134;28;20259;-71
2021/09/23 03:04:15;;;;;;;1999.90;999.90;;;;;;;10.01;100.00;95936.28;5038830;28;20679;-69
2021/09/23 03:06:44;;;;;;;1999.90;999.90;;;;;;;10.02;100.00;95941.19;5051319;28;20667;-71
2021/09/23 03:09:11;;;;;;;1999.90;999.90;;;;;;;10.05;100.00;95935.44;5051809;28;20205;-71
2021/09/23 03:11:39;;;;;;;1999.90;999.90;;;;;;;10.04;100.00;95936.50;5041312;28;20263;-75
2021/09/23 03:14:06;;;;;;;1999.90;999.90;;;;;;;10.05;100.00;95935.44;5039664;28;20213;-70
2021/09/23 03:16:33;;;;;;;1999.90;999.90;;;;;;;10.13;100.00;95929.63;5043002;28;20205;-69
2021/09/23 03:19:00;;;;;;;1999.90;999.90;;;;;;;10.19;100.00;95930.38;5051514;28;20270;-71
2021/09/23 03:21:27;;;;;;;1999.90;999.90;;;;;;;10.11;100.00;95926.53;5051314;28;20225;-70
2021/09/23 03:23:56;;;;;;;1999.90;999.90;;;;;;;10.17;100.00;95922.84;5051147;28;20209;-70
2021/09/23 03:26:23;;;;;;;1999.90;999.90;;;;;;;10.20;100.00;95927.50;5051703;28;20229;-70
2021/09/23 03:28:51;;;;;;;1999.90;999.90;;;;;;;10.24;100.00;95928.47;5051064;28;20201;-71
2021/09/23 03:31:18;;;;;;;1999.90;999.90;;;;;;;10.21;100.00;95931.63;5051106;28;20205;-70
2021/09/23 03:33:45;;;;;;;1999.90;999.90;;;;;;;10.13;100.00;95927.03;5051152;28;20680;-70
2021/09/23 03:36:12;;;;;;;1999.90;999.90;;;;;;;10.08;100.00;95919.28;5050825;28;20202;-71
2021/09/23 03:38:41;;;;;;;1999.90;999.90;;;;;;;10.08;100.00;95919.28;5050903;28;20205;-70
2021/09/23 03:41:09;;;;;;;1999.90;999.90;;;;;;;10.04;100.00;95918.31;5050889;28;20253;-70
2021/09/23 03:43:36;;;;;;;1999.90;999.90;;;;;;;10.04;100.00;95917.53;5051042;28;20208;-70
2021/09/23 03:46:04;;;;;;;1999.90;999.90;;;;;;;10.08;100.00;95914.09;5050619;28;20685;-70
2021/09/23 03:48:32;;;;;;;1999.90;999.90;;;;;;;10.07;100.00;95917.75;5050936;28;20201;-71
2021/09/23 03:50:59;;;;;;;1999.90;999.90;;;;;;;10.09;100.00;95920.84;5053612;28;20201;-70
2021/09/23 03:53:26;;;;;;;1999.90;999.90;;;;;;;10.22;100.00;95920.19;5050435;28;20224;-72
2021/09/23 03:55:54;;;;;;;1999.90;999.90;;;;;;;10.19;100.00;95925.94;5050417;28;20201;-74
2021/09/23 03:58:22;;;;;;;1999.90;999.90;;;;;;;10.19;100.00;95936.34;5050018;28;20198;-71
2021/09/23 04:00:50;;;;;;;1999.90;999.90;;;;;;;10.12;100.00;95938.47;5050875;28;20307;-70
2021/09/23 04:03:17;;;;;;;1999.90;999.90;;;;;;;10.18;100.00;95934.78;5050907;28;20193;-70
2021/09/23 04:05:44;;;;;;;1999.90;999.90;;;;;;;10.21;100.00;95934.22;5050533;28;20219;-71
2021/09/23 04:08:11;;;;;;;1999.90;999.90;;;;;;;10.16;100.00;95938.72;5050733;28;20255;-70
2021/09/23 04:10:38;;;;;;;1999.90;999.90;;;;;;;10.12;100.00;95941.06;5050169;28;20633;-70
2021/09/23 04:13:05;;;;;;;1999.90;999.90;;;;;;;10.05;100.00;95934.66;5048886;28;20567;-68
2021/09/23 04:15:34;;;;;;;1999.90;999.90;;;;;;;10.02;100.00;95940.41;5050410;28;20201;-74
2021/09/23 04:18:01;;;;;;;1999.90;999.90;;;;;;;9.99;100.00;95938.38;5050588;28;20212;-76
2021/09/23 04:20:28;;;;;;;1999.90;999.90;;;;;;;9.98;100.00;95950.56;5050029;28;20284;-72
2021/09/23 04:22:55;;;;;;;1999.90;999.90;;;;;;;9.99;100.00;95957.31;5045711;28;20257;-70
2021/09/23 04:25:23;;;;;;;1999.90;999.90;;;;;;;9.94;100.00;95960.75;5038931;28;20216;-67
2021/09/23 04:27:51;;;;;;;1999.90;999.90;;;;;;;9.95;100.00;95951.16;5050027;28;20205;-70
2021/09/23 04:30:19;;;;;;;1999.90;999.90;;;;;;;9.92;100.00;95959.47;5043360;28;20215;-70
2021/09/23 04:32:47;;;;;;;1999.90;999.90;;;;;;;9.99;100.00;95962.50;5046783;28;20255;-70
2021/09/23 04:35:14;;;;;;;1999.90;999.90;;;;;;;9.94;100.00;95965.16;5048572;28;20229;-69
2021/09/23 04:37:41;;;;;;;1999.90;999.90;;;;;;;9.99;100.00;95979.91;5050138;28;20387;-70
2021/09/23 04:40:10;;;;;;;1999.90;999.90;;;;;;;10.05;100.00;95974.41;5050536;28;20665;-70
2021/09/23 04:42:37;;;;;;;1999.90;999.90;;;;;;;10.08;100.00;95971.22;5050055;28;20225;-69
2021/09/23 04:45:05;;;;;;;1999.90;999.90;;;;;;;10.00;100.00;95990.03;5050064;28;20205;-70
2021/09/23 04:47:32;;;;;;;1999.90;999.90;;;;;;;10.06;100.00;95993.34;5050290;28;20204;-70
2021/09/23 04:50:01;;;;;;;1999.90;999.90;;;;;;;10.05;100.00;95992.56;5059393;28;20197;-70
2021/09/23 04:52:28;;;;;;;1999.90;999.90;;;;;;;10.16;100.00;95995.84;5065244;28;20229;-70
2021/09/23 04:54:55;;;;;;;1999.90;999.90;;;;;;;10.27;100.00;96003.22;5049727;28;20575;-70
2021/09/23 04:57:22;;;;;;;1999.90;999.90;;;;;;;10.25;100.00;96018.34;5050170;28;20288;-70
2021/09/23 04:59:49;;;;;;;1999.90;999.90;;;;;;;10.05;100.00;96023.72;5049981;28;20201;-70
2021/09/23 05:02:16;;;;;;;1999.90;999.90;;;;;;;10.03;100.00;96025.03;5049643;28;20731;-70
2021/09/23 05:04:45;;;;;;;1999.90;999.90;;;;;;;10.03;100.00;96025.81;5050128;28;20290;-69
2021/09/23 05:07:13;;;;;;;1999.90;999.90;;;;;;;10.02;100.00;96037.25;5049831;28;20193;-69
2021/09/23 05:09:40;;;;;;;1999.90;999.90;;;;;;;9.97;100.00;96036.53;5049007;28;20201;-70
2021/09/23 05:12:09;;;;;;;1999.90;999.90;;;;;;;10.08;99.39;96025.75;5049768;28;20201;-69
2021/09/23 05:14:36;;;;;;;1999.90;999.90;;;;;;;10.06;99.40;96043.44;5049581;28;20201;-69
2021/09/23 05:17:03;;;;;;;1999.90;999.90;;;;;;;10.07;99.08;96041.59;5049680;28;20212;-69
2021/09/23 05:19:31;;;;;;;1999.90;999.90;;;;;;;10.05;99.43;96048.91;5049429;28;20211;-69
2021/09/23 05:21:58;;;;;;;1999.90;999.90;;;;;;;9.99;99.30;96055.97;5049687;28;20227;-70
2021/09/23 05:24:26;;;;;;;1999.90;999.90;;;;;;;10.10;99.24;96054.84;5049522;28;20665;-70
2021/09/23 05:26:53;;;;;;;1999.90;999.90;;;;;;;10.09;99.06;96062.91;5049366;28;20565;-69
2021/09/23 05:29:20;;;;;;;1999.90;999.90;;;;;;;10.01;99.22;96056.50;5049165;28;20231;-69
2021/09/23 05:31:48;;;;;;;1999.90;999.90;;;;;;;10.10;99.29;96056.66;5049303;28;20197;-69
2021/09/23 05:34:15;;;;;;;1999.90;999.90;;;;;;;10.19;98.00;96055.81;5049604;28;20231;-69
2021/09/23 05:36:42;;;;;;;1999.90;999.90;;;;;;;10.04;98.20;96060.34;5049212;28;20208;-69
2021/09/23 05:39:09;;;;;;;1999.90;999.90;;;;;;;9.99;99.13;96058.59;5049418;28;20201;-68
2021/09/23 05:41:41;;;;;;;1999.90;999.90;;;;;;;10.14;98.33;96058.41;5048965;28;20221;-69
2021/09/23 05:44:08;;;;;;;1999.90;999.90;;;;;;;10.17;98.07;96065.69;5049357;28;20189;-69
2021/09/23 05:46:35;;;;;;;1999.90;999.90;;;;;;;10.15;97.55;96065.16;5049086;28;20581;-69
2021/09/23 05:49:03;;;;;;;1999.90;999.90;;;;;;;10.15;98.05;96062.56;5050713;28;20198;-69
2021/09/23 05:51:30;;;;;;;1999.90;999.90;;;;;;;10.29;98.10;96066.09;5069120;28;20232;-69
2021/09/23 05:53:57;;;;;;;1999.90;999.90;;;;;;;10.24;98.86;96073.94;5052819;28;20251;-69
2021/09/23 05:56:24;;;;;;;1999.90;999.90;;;;;;;10.31;97.16;96063.97;5049221;28;20206;-69
2021/09/23 05:58:53;;;;;;;1999.90;999.90;;;;;;;10.41;98.32;96070.13;5048905;28;20232;-69
2021/09/23 06:01:20;;;;;;;1999.90;999.90;;;;;;;10.62;97.96;96074.00;5048702;28;20196;-69
2021/09/23 06:03:47;;;;;;;1999.90;999.90;;;;;;;10.67;96.43;96076.53;5049180;28;20197;-69
2021/09/23 06:06:14;;;;;;;1999.90;999.90;;;;;;;10.74;95.30;96084.78;5049035;28;20208;-69
2021/09/23 06:08:42;;;;;;;1999.90;999.90;;;;;;;10.78;94.96;96085.78;5049150;28;20262;-69
2021/09/23 06:11:11;;;;;;;1999.90;999.90;;;;;;;10.79;94.81;96085.50;5048861;28;20649;-69
2021/09/23 06:13:39;;;;;;;1999.90;999.90;;;;;;;11.05;95.47;96088.53;5049197;28;20569;-69
2021/09/23 06:16:08;;;;;;;1999.90;999.90;;;;;;;11.50;94.59;96081.91;5049081;28;20295;-69
2021/09/23 06:18:36;;;;;;;1999.90;999.90;;;;;;;12.04;91.05;96083.13;5048946;28;20197;-69
2021/09/23 06:21:05;;;;;;;1999.90;999.90;;;;;;;12.30;88.48;96086.06;5050117;28;20200;-68
2021/09/23 06:23:32;;;;;;;1999.90;999.90;;;;;;;12.37;86.17;96087.19;5052828;28;20221;-68
2021/09/23 06:25:59;;;;;;;1999.90;999.90;;;;;;;12.58;87.58;96089.44;5052753;28;20201;-68
2021/09/23 06:28:27;;;;;;;1999.90;999.90;;;;;;;12.78;84.79;96087.19;5052713;28;20207;-67
2021/09/23 06:30:56;;;;;;;1999.90;999.90;;;;;;;13.00;84.63;96090.94;5053021;28;20654;-68
2021/09/23 06:33:25;;;;;;;1999.90;999.90;;;;;;;12.98;82.86;96091.22;5052961;28;20262;-69
2021/09/23 06:35:52;;;;;;;1999.90;999.90;;;;;;;12.69;83.87;96094.16;5052673;28;20235;-69
2021/09/23 06:38:19;;;;;;;1999.90;999.90;;;;;;;12.73;83.64;96102.94;5052883;28;20215;-68
2021/09/23 06:40:46;;;;;;;1999.90;999.90;;;;;;;12.58;83.13;96105.84;5052653;28;20203;-68
2021/09/23 06:43:13;;;;;;;1999.90;999.90;;;;;;;12.59;82.97;96104.78;5052669;28;20217;-68
2021/09/23 06:45:41;;;;;;;1999.90;999.90;;;;;;;12.31;83.90;96098.78;5052657;28;20274;-68
2021/09/23 06:48:08;;;;;;;1999.90;999.90;;;;;;;12.22;84.68;96104.94;5052758;28;20197;-68
2021/09/23 06:50:37;;;;;;;1999.90;999.90;;;;;;;12.28;84.93;96103.81;5067263;28;20293;-67
2021/09/23 06:53:04;;;;;;;1999.90;999.90;;;;;;;12.22;85.45;96104.94;5063089;28;20229;-68
2021/09/23 06:55:31;;;;;;;1999.90;999.90;;;;;;;12.31;82.85;96103.22;5052507;28;20201;-68
2021/09/23 06:57:58;;;;;;;1999.90;999.90;;;;;;;12.00;82.51;96116.78;5052184;28;20193;-68
2021/09/23 07:00:26;;;;;;;1999.90;999.90;;;;;;;11.95;82.49;96116.13;5052173;28;20772;-70
2021/09/23 07:02:54;;;;;;;1999.90;999.90;;;;;;;12.14;83.07;96122.03;5052620;28;20217;-69
2021/09/23 07:05:21;;;;;;;1999.90;999.90;;;;;;;12.17;81.92;96115.47;5052194;28;20201;-69
2021/09/23 07:07:50;;;;;;;1999.90;999.90;;;;;;;12.17;81.71;96118.06;5052067;28;20213;-68
2021/09/23 07:10:17;;;;;;;1999.90;999.90;;;;;;;12.23;82.64;96116.91;5052327;28;20266;-69
2021/09/23 07:12:44;;;;;;;1999.90;999.90;;;;;;;12.02;83.10;96117.28;5052021;28;20189;-68
2021/09/23 07:15:12;;;;;;;1999.90;999.90;;;;;;;12.08;83.32;96126.56;5052223;28;20585;-68
2021/09/23 07:17:39;;;;;;;1999.90;999.90;;;;;;;12.16;83.39;96121.72;5051857;28;20229;-68
2021/09/23 07:20:08;;;;;;;1999.90;999.90;;;;;;;12.31;81.58;96122.22;5052120;28;20211;-69
2021/09/23 07:22:35;;;;;;;1999.90;999.90;;;;;;;12.25;82.52;96115.59;5052057;28;20672;-68
2021/09/23 07:25:04;;;;;;;1999.90;999.90;;;;;;;12.34;81.52;96113.09;5052050;28;20193;-68
2021/09/23 07:27:31;;;;;;;1999.90;999.90;;;;;;;12.26;81.70;96113.72;5051848;28;20205;-68
2021/09/23 07:29:58;;;;;;;1999.90;999.90;;;;;;;12.05;80.46;96111.47;5052102;28;20228;-68
2021/09/23 07:32:25;;;;;;;1999.90;999.90;;;;;;;12.08;81.09;96100.50;5051452;28;20273;-69
2021/09/23 07:34:53;;;;;;;1999.90;999.90;;;;;;;12.00;81.43;96106.34;5051889;28;20284;-68
2021/09/23 07:37:20;;;;;;;1999.90;999.90;;;;;;;12.01;81.11;96107.91;5051191;28;20643;-68
2021/09/23 07:39:47;;;;;;;1999.90;999.90;;;;;;;12.00;80.28;96106.34;5051830;28;20201;-68
2021/09/23 07:42:17;;;;;;;1999.90;999.90;;;;;;;12.05;81.68;96093.25;5051764;28;20695;-68
2021/09/23 07:44:44;;;;;;;1999.90;999.90;;;;;;;12.01;79.60;96104.53;5051608;28;20208;-68
2021/09/23 07:47:11;;;;;;;1999.90;999.90;;;;;;;11.93;79.25;96095.56;5051408;28;20247;-68
2021/09/23 07:49:38;;;;;;;1999.90;999.90;;;;;;;12.07;79.08;96098.94;5057878;28;20235;-68
2021/09/23 07:52:06;;;;;;;1999.90;999.90;;;;;;;12.19;76.77;96092.50;5069912;28;20821;-68
2021/09/23 07:54:34;;;;;;;1999.90;999.90;;;;;;;12.25;77.22;96089.53;5051264;28;20208;-68
2021/09/23 07:57:01;;;;;;;1999.90;999.90;;;;;;;12.22;75.19;96092.69;5051156;28;20304;-68
2021/09/23 07:59:29;;;;;;;1999.90;999.90;;;;;;;12.36;75.67;96100.50;5051313;28;20293;-68
2021/09/23 08:01:57;;;;;;;1999.90;999.90;;;;;;;12.42;76.84;96099.38;5051445;28;20934;-68
2021/09/23 08:04:24;;;;;;;1999.90;999.90;;;;;;;12.42;75.96;96104.59;5051386;28;20205;-68
2021/09/23 08:06:51;;;;;;;1999.90;999.90;;;;;;;12.63;77.30;96110.97;5050933;28;20197;-67
2021/09/23 08:09:18;;;;;;;1999.90;999.90;;;;;;;12.69;76.43;96109.81;5051025;28;20208;-67
2021/09/23 08:11:46;;;;;;;1999.90;999.90;;;;;;;13.01;74.92;96105.50;5051077;28;20205;-68
2021/09/23 08:14:13;;;;;;;1999.90;999.90;;;;;;;13.35;74.39;96106.59;5051414;28;20197;-68
2021/09/23 08:16:43;;;;;;;1999.90;999.90;;;;;;;13.34;74.15;96112.13;5051072;28;20197;-69
2021/09/23 08:19:11;;;;;;;1999.90;999.90;;;;;;;13.35;72.33;96111.03;5050814;28;20219;-68
2021/09/23 08:21:38;;;;;;;1999.90;999.90;;;;;;;13.32;74.05;96114.25;5050703;28;20205;-67
2021/09/23 08:24:06;;;;;;;1999.90;999.90;;;;;;;13.26;72.63;96120.66;5050884;28;20231;-68
2021/09/23 08:26:34;;;;;;;1999.90;999.90;;;;;;;13.33;71.52;96118.41;5050675;28;20204;-67
2021/09/23 08:29:01;;;;;;;1999.90;999.90;;;;;;;13.54;70.41;96118.72;5050618;28;20250;-69
2021/09/23 08:31:28;;;;;;;1999.90;999.90;;;;;;;13.56;69.90;96127.81;5050362;28;20284;-69
2021/09/23 08:33:57;;;;;;;1999.90;999.90;;;;;;;13.62;68.03;96116.19;5050474;28;20197;-68
2021/09/23 08:36:24;;;;;;;1999.90;999.90;;;;;;;14.25;66.83;96114.41;5050822;28;20201;-68
2021/09/23 08:38:51;;;;;;;1999.90;999.90;;;;;;;14.56;65.69;96110.69;5050447;28;20284;-69
2021/09/23 08:41:19;;;;;;;1999.90;999.90;;;;;;;14.28;66.78;96117.19;5050220;28;20205;-69
2021/09/23 08:43:46;;;;;;;1999.90;999.90;;;;;;;14.56;65.70;96113.31;5049341;28;20239;-68
2021/09/23 08:46:13;;;;;;;1999.90;999.90;;;;;;;14.72;66.03;96115.53;5050239;28;20626;-69
2021/09/23 08:48:40;;;;;;;1999.90;999.90;;;;;;;15.18;64.70;96123.63;5050343;28;20254;-69
2021/09/23 08:51:09;;;;;;;1999.90;999.90;;;;;;;15.49;60.52;96118.25;5068859;28;20199;-68
2021/09/23 08:53:39;;;;;;;1999.90;999.90;;;;;;;15.18;61.14;96115.00;5056410;28;20229;-69
2021/09/23 08:56:11;;;;;;;1999.90;999.90;;;;;;;15.33;61.69;96115.31;5049919;28;20200;-69
2021/09/23 08:58:39;;;;;;;1999.90;999.90;;;;;;;15.29;60.40;96114.38;5049927;28;20185;-68
2021/09/23 09:01:09;;;;;;;1999.90;999.90;;;;;;;15.53;61.22;96098.25;5049819;28;20197;-69
2021/09/23 09:03:37;;;;;;;1999.90;999.90;;;;;;;15.32;59.91;96098.06;5049915;28;20239;-67
2021/09/23 09:06:06;;;;;;;1999.90;999.90;;;;;;;15.62;60.03;96104.25;5049761;28;20197;-67
2021/09/23 09:08:36;;;;;;;1999.90;999.90;;;;;;;15.89;58.29;96101.25;5049954;28;20227;-69
2021/09/23 09:11:08;;;;;;;1999.90;999.90;;;;;;;16.37;57.16;96102.84;5050118;28;20189;-68
2021/09/23 09:13:37;;;;;;;1999.90;999.90;;;;;;;16.01;56.29;96111.13;5049662;28;20660;-68
2021/09/23 09:16:07;;;;;;;1999.90;999.90;;;;;;;15.56;58.61;96107.31;5049679;28;20208;-68
2021/09/23 09:18:36;;;;;;;1999.90;999.90;;;;;;;15.67;57.48;96108.56;5049965;28;20228;-68
2021/09/23 09:21:07;;;;;;;1999.90;999.90;;;;;;;15.24;57.92;96111.16;5049958;28;20571;-67
2021/09/23 09:23:42;;;;;;;1999.90;999.90;;;;;;;14.87;57.81;96112.47;5049891;28;20298;-66
2021/09/23 09:26:11;;;;;;;1999.90;999.90;;;;;;;15.23;58.76;96109.63;5049648;28;20195;-67
2021/09/23 09:28:49;;;;;;;1999.90;999.90;;;;;;;15.52;57.15;96109.03;5049707;28;20586;-68
2021/09/23 09:31:18;;;;;;;1999.90;999.90;;;;;;;15.52;56.82;96106.41;5049501;28;20189;-67
2021/09/23 09:33:47;;;;;;;1999.90;999.90;;;;;;;15.97;55.79;96102.34;5049336;28;20197;-66
2021/09/23 09:36:26;;;;;;;1999.90;999.90;;;;;;;15.90;56.07;96099.41;5049721;28;20204;-67
2021/09/23 09:38:58;;;;;;;1999.90;999.90;;;;;;;15.49;57.01;96095.44;5049640;28;20194;-67
2021/09/23 09:41:26;;;;;;;1999.90;999.90;;;;;;;15.55;58.53;96085.59;5048879;28;20201;-67
2021/09/23 09:43:55;;;;;;;1999.90;999.90;;;;;;;15.99;58.40;96079.19;5049038;28;20574;-66
2021/09/23 09:46:28;;;;;;;1999.90;999.90;;;;;;;15.99;56.64;96079.19;5049403;28;20201;-67
2021/09/23 09:48:56;;;;;;;1999.90;999.90;;;;;;;16.14;56.32;96081.31;5049728;28;20258;-67
2021/09/23 09:51:25;;;;;;;1999.90;999.90;;;;;;;16.13;54.75;96079.78;5069504;28;20200;-67
2021/09/23 09:54:04;;;;;;;1999.90;999.90;;;;;;;15.67;55.05;96071.88;5053043;28;20736;-67
2021/09/23 09:56:31;;;;;;;1999.90;999.90;;;;;;;15.71;56.25;96078.03;5048932;28;20195;-66
2021/09/23 09:59:12;;;;;;;1999.90;999.90;;;;;;;15.81;54.70;96083.72;5049086;28;20203;-66
2021/09/23 10:01:41;;;;;;;1999.90;999.90;;;;;;;15.50;55.75;96080.47;5049170;28;20650;-68
2021/09/23 10:04:09;;;;;;;1999.90;999.90;;;;;;;15.73;56.40;96075.88;5048841;28;20324;-66
2021/09/23 10:06:39;;;;;;;1999.90;999.90;;;;;;;15.94;56.46;96081.97;5048913;28;20205;-66
2021/09/23 10:09:09;;;;;;;1999.90;999.90;;;;;;;16.05;55.10;96082.41;5048866;28;20201;-66
2021/09/23 10:11:38;;;;;;;1999.90;999.90;;;;;;;16.29;54.39;96078.16;5048791;28;20189;-66
2021/09/23 10:14:05;;;;;;;1999.90;999.90;;;;;;;16.24;53.08;96083.59;5048881;28;20302;-67
2021/09/23 10:16:33;;;;;;;1999.90;999.90;;;;;;;15.99;52.72;96084.44;5049053;28;20276;-67
2021/09/23 10:19:00;;;;;;;1999.90;999.90;;;;;;;15.96;55.42;96082.44;5049248;28;20212;-67
2021/09/23 10:21:28;;;;;;;1999.90;999.90;;;;;;;15.68;52.92;96089.91;5049148;28;20607;-66
2021/09/23 10:23:57;;;;;;;1999.90;999.90;;;;;;;15.71;53.41;96075.41;5049018;28;20234;-65
2021/09/23 10:26:29;;;;;;;1999.90;999.90;;;;;;;15.91;55.17;96074.75;5048712;28;20685;-67
2021/09/23 10:28:59;;;;;;;1999.90;999.90;;;;;;;16.17;53.53;96074.69;5048721;28;20189;-67
2021/09/23 10:31:31;;;;;;;1999.90;999.90;;;;;;;16.11;53.89;96070.69;5048522;28;20207;-67
2021/09/23 10:34:00;;;;;;;1999.90;999.90;;;;;;;16.45;53.65;96075.00;5048914;28;20235;-68
2021/09/23 10:36:29;;;;;;;1999.90;999.90;;;;;;;16.60;53.45;96064.78;5048313;28;20586;-67
2021/09/23 10:38:57;;;;;;;1999.90;999.90;;;;;;;16.87;53.01;96071.44;5048670;28;20588;-67
2021/09/23 10:41:27;;;;;;;1999.90;999.90;;;;;;;16.55;51.14;96079.91;5048332;28;20558;-67
2021/09/23 10:43:55;;;;;;;1999.90;999.90;;;;;;;16.60;51.51;96062.16;5048630;28;20229;-67
2021/09/23 10:46:25;;;;;;;1999.90;999.90;;;;;;;16.53;52.83;96072.38;5048231;28;20197;-68
2021/09/23 10:48:54;;;;;;;1999.90;999.90;;;;;;;16.57;52.86;96070.66;5048836;28;20194;-68
2021/09/23 10:51:22;;;;;;;1999.90;999.90;;;;;;;16.41;53.09;96063.63;5068299;28;20200;-67
2021/09/23 10:53:52;;;;;;;1999.90;999.90;;;;;;;16.62;54.52;96064.47;5052814;28;20235;-67
2021/09/23 10:56:21;;;;;;;1999.90;999.90;;;;;;;16.57;52.13;96067.25;5048138;28;20243;-67
2021/09/23 10:58:51;;;;;;;1999.90;999.90;;;;;;;16.45;55.05;96064.53;5048285;28;20681;-69